Time;durP1;ratioP1;P1;durP2;ratioP2;P2;SDS_P1;SDS_P2;PMS_P1;PMS_P2;Temp;Humidity;BMP_temperature;BMP_pressure;BME280_temperature;BME280_humidity;BME280_pressure;Samples;Min_cycle;Max_cycle;Signal;HPM_P1;HPM_P2
2023/05/12 00:01:03;;;;;;;;;;;;;;;10.80;87.75;97781.78;5077469;28;20446;-64
2023/05/12 00:03:52;;;;;;;;;;;;;;;10.93;86.10;97780.88;5069932;28;19924;-61
2023/05/12 00:06:44;;;;;;;;;;;;;;;10.85;86.58;97783.56;5081401;28;20347;-62
2023/05/12 00:09:32;;;;;;;;;;;;;;;10.87;86.10;97790.28;5079395;28;20014;-61
2023/05/12 00:12:20;;;;;;;;;;;;;;;11.08;85.41;97789.66;5081871;28;19925;-64
2023/05/12 00:15:09;;;;;;;;;;;;;;;10.90;86.07;97783.41;5082467;28;19920;-64
2023/05/12 00:17:57;;;;;;;;;;;;;;;10.70;86.50;97757.59;5070800;28;19925;-60
2023/05/12 00:20:46;;;;;;;;;;;;;;;10.86;86.44;97777.78;5076890;28;19932;-62
2023/05/12 00:23:35;;;;;;;;;;;;;;;10.80;86.58;97776.34;5072664;28;19924;-62
2023/05/12 00:26:23;;;;;;;;;;;;;;;10.82;87.28;97781.47;5082478;28;19924;-63
2023/05/12 00:29:12;;;;;;;;;;;;;;;10.80;86.70;97779.06;5078695;28;19946;-60
2023/05/12 00:32:00;;;;;;;;;;;;;;;10.75;86.97;97777.28;5081911;28;19966;-62
2023/05/12 00:34:49;;;;;;;;;;;;;;;10.83;86.59;97780.34;5077704;27;19920;-63
2023/05/12 00:37:37;;;;;;;;;;;;;;;10.79;86.98;97777.47;5110141;27;20012;-63
2023/05/12 00:40:27;;;;;;;;;;;;;;;10.72;87.44;97771.69;5118031;27;19920;-59
2023/05/12 00:43:15;;;;;;;;;;;;;;;10.69;87.88;97777.75;5098777;27;19931;-60
2023/05/12 00:46:04;;;;;;;;;;;;;;;10.69;88.06;97777.75;5102210;27;20284;-60
2023/05/12 00:48:53;;;;;;;;;;;;;;;10.69;88.30;97778.53;5086055;28;19927;-62
2023/05/12 00:51:41;;;;;;;;;;;;;;;10.65;88.63;97771.34;5089409;28;19935;-61
2023/05/12 00:54:29;;;;;;;;;;;;;;;10.62;88.77;97771.97;5097240;28;20019;-59
2023/05/12 00:57:19;;;;;;;;;;;;;;;10.61;88.91;97765.75;5108372;27;20690;-60
2023/05/12 01:00:07;;;;;;;;;;;;;;;10.64;89.13;97765.09;5095648;28;20536;-63
2023/05/12 01:02:58;;;;;;;;;;;;;;;10.65;88.96;97769.44;5095006;27;20826;-61
2023/05/12 01:05:50;;;;;;;;;;;;;;;10.73;88.89;97765.94;5099299;27;19928;-61
2023/05/12 01:08:40;;;;;;;;;;;;;;;10.68;88.44;97774.22;5084675;28;19940;-61
2023/05/12 01:11:28;;;;;;;;;;;;;;;10.65;88.81;97771.34;5089416;27;19957;-63
2023/05/12 01:14:18;;;;;;;;;;;;;;;10.58;88.56;97771.81;5103825;27;19924;-60
2023/05/12 01:17:08;;;;;;;;;;;;;;;10.56;89.16;97765.88;5098405;28;20572;-61
2023/05/12 01:19:58;;;;;;;;;;;;;;;10.59;89.28;97761.72;5102815;28;19923;-63
2023/05/12 01:22:48;;;;;;;;;;;;;;;10.60;89.46;97760.59;5089327;27;20412;-61
2023/05/12 01:25:36;;;;;;;;;;;;;;;10.58;89.46;97755.50;5106872;27;19927;-59
2023/05/12 01:28:26;;;;;;;;;;;;;;;10.67;89.28;97758.25;5088718;28;20006;-60
2023/05/12 01:31:14;;;;;;;;;;;;;;;10.67;89.52;97753.63;5085872;28;19920;-60
2023/05/12 01:34:02;;;;;;;;;;;;;;;10.68;89.47;97757.13;5106547;27;19957;-61
2023/05/12 01:36:50;;;;;;;;;;;;;;;10.66;89.69;97753.94;5089973;28;19973;-63
2023/05/12 01:39:39;;;;;;;;;;;;;;;10.62;89.86;97756.47;5083776;28;19920;-60
2023/05/12 01:42:30;;;;;;;;;;;;;;;10.65;89.76;97755.03;5079817;28;19924;-62
2023/05/12 01:45:20;;;;;;;;;;;;;;;10.61;89.41;97749.44;5087978;28;19927;-61
2023/05/12 01:48:11;;;;;;;;;;;;;;;10.61;89.74;97756.81;5079613;28;19923;-65
2023/05/12 01:51:00;;;;;;;;;;;;;;;10.63;89.56;97754.56;5090297;28;19920;-62
2023/05/12 01:53:48;;;;;;;;;;;;;;;10.65;89.60;97757.75;5110917;27;19920;-60
2023/05/12 01:56:36;;;;;;;;;;;;;;;10.67;89.45;97752.81;5094310;28;20038;-60
2023/05/12 01:59:25;;;;;;;;;;;;;;;10.60;89.40;97747.03;5097933;28;19919;-61
2023/05/12 02:02:16;;;;;;;;;;;;;;;10.67;89.55;97745.47;5097103;27;20590;-62
2023/05/12 02:05:06;;;;;;;;;;;;;;;10.68;89.51;97749.78;5114758;27;20268;-65
2023/05/12 02:07:57;;;;;;;;;;;;;;;10.63;89.38;97758.06;5099999;28;19919;-63
2023/05/12 02:10:45;;;;;;;;;;;;;;;10.62;90.01;97752.97;5089436;27;20364;-63
2023/05/12 02:13:34;;;;;;;;;;;;;;;10.69;89.71;97747.84;5093131;28;19924;-64
2023/05/12 02:16:22;;;;;;;;;;;;;;;10.68;89.45;97748.97;5083259;28;19932;-62
2023/05/12 02:19:12;;;;;;;;;;;;;;;10.68;89.54;97749.78;5098543;28;20060;-60
2023/05/12 02:22:00;;;;;;;;;;;;;;;10.75;89.34;97750.09;5097982;28;20321;-61
2023/05/12 02:24:48;;;;;;;;;;;;;;;10.77;88.98;97747.09;5095530;28;19927;-60
2023/05/12 02:27:36;;;;;;;;;;;;;;;10.75;88.36;97747.38;5084147;28;19920;-60
2023/05/12 02:30:25;;;;;;;;;;;;;;;10.82;88.25;97744.22;5099674;28;20391;-62
2023/05/12 02:33:13;;;;;;;;;;;;;;;10.71;87.88;97748.38;5082399;28;20392;-60
2023/05/12 02:36:03;;;;;;;;;;;;;;;10.78;87.86;97745.97;5099955;28;19998;-63
2023/05/12 02:38:51;;;;;;;;;;;;;;;10.74;87.69;97751.22;5083640;28;19935;-63
2023/05/12 02:41:39;;;;;;;;;;;;;;;10.70;88.02;97749.47;5091385;28;19932;-60
2023/05/12 02:44:27;;;;;;;;;;;;;;;10.65;88.52;97749.59;5109806;27;20388;-62
2023/05/12 02:47:15;;;;;;;;;;;;;;;10.66;89.25;97745.78;5085058;28;19953;-64
2023/05/12 02:50:07;;;;;;;;;;;;;;;10.68;89.58;97747.06;5096473;28;19928;-64
2023/05/12 02:52:57;;;;;;;;;;;;;;;10.69;89.30;97745.16;5108595;27;20518;-59
2023/05/12 02:55:45;;;;;;;;;;;;;;;10.71;89.29;97746.44;5076751;28;19932;-61
2023/05/12 02:58:34;;;;;;;;;;;;;;;10.70;88.62;97741.31;5095595;28;19967;-60
2023/05/12 03:01:22;;;;;;;;;;;;;;;10.70;88.73;97747.53;5097134;27;20317;-62
2023/05/12 03:04:10;;;;;;;;;;;;;;;10.73;88.37;97736.03;5096025;28;19932;-62
2023/05/12 03:06:59;;;;;;;;;;;;;;;10.72;88.04;97739.88;5107070;27;19920;-61
2023/05/12 03:09:51;;;;;;;;;;;;;;;10.62;88.20;97733.94;5101730;27;19920;-61
2023/05/12 03:12:41;;;;;;;;;;;;;;;10.67;87.73;97736.53;5102149;27;20033;-67
2023/05/12 03:15:29;;;;;;;;;;;;;;;10.68;87.54;97733.47;5096880;28;19920;-60
2023/05/12 03:18:17;;;;;;;;;;;;;;;10.61;87.69;97721.47;5097938;28;19920;-61
2023/05/12 03:21:08;;;;;;;;;;;;;;;10.67;87.31;97731.09;5090001;28;20011;-59
2023/05/12 03:23:56;;;;;;;;;;;;;;;10.78;87.43;97734.31;5078396;28;19927;-64
2023/05/12 03:26:47;;;;;;;;;;;;;;;10.75;87.98;97733.00;5069791;28;19924;-60
2023/05/12 03:29:35;;;;;;;;;;;;;;;10.66;87.47;97729.50;5079623;28;19993;-62
2023/05/12 03:32:24;;;;;;;;;;;;;;;10.67;86.84;97734.59;5077757;28;19933;-62
2023/05/12 03:35:13;;;;;;;;;;;;;;;10.66;86.99;97730.28;5082683;28;19919;-59
2023/05/12 03:38:01;;;;;;;;;;;;;;;10.69;86.93;97734.28;5075933;28;19978;-63
2023/05/12 03:40:51;;;;;;;;;;;;;;;10.65;86.78;97733.31;5094232;28;19946;-60
2023/05/12 03:43:42;;;;;;;;;;;;;;;10.67;86.69;97731.09;5066330;28;19924;-62
2023/05/12 03:46:30;;;;;;;;;;;;;;;10.81;86.15;97739.09;5103209;27;19951;-58
2023/05/12 03:49:19;;;;;;;;;;;;;;;10.68;86.84;97732.69;5072322;28;20384;-61
2023/05/12 03:52:07;;;;;;;;;;;;;;;10.71;86.71;97726.63;5085028;28;19924;-61
2023/05/12 03:54:56;;;;;;;;;;;;;;;10.76;86.26;97729.19;5093684;28;19920;-60
2023/05/12 03:57:44;;;;;;;;;;;;;;;10.72;86.31;97734.47;5069461;28;20447;-63
2023/05/12 04:00:33;;;;;;;;;;;;;;;10.82;86.24;97732.56;5071451;28;19925;-63
2023/05/12 04:03:22;;;;;;;;;;;;;;;10.74;86.35;97728.69;5086324;28;19924;-60
2023/05/12 04:06:10;;;;;;;;;;;;;;;10.72;86.32;97739.09;5068156;28;20316;-61
2023/05/12 04:08:58;;;;;;;;;;;;;;;10.73;86.22;97736.03;5099141;27;19973;-60
2023/05/12 04:11:47;;;;;;;;;;;;;;;10.72;86.29;97744.53;5073026;28;19927;-60
2023/05/12 04:14:37;;;;;;;;;;;;;;;10.86;86.07;97741.66;5078286;28;20623;-60
2023/05/12 04:17:31;;;;;;;;;;;;;;;10.84;85.69;97750.13;5075751;28;19926;-61
2023/05/12 04:20:19;;;;;;;;;;;;;;;10.85;85.95;97749.00;5073900;28;19939;-59
2023/05/12 04:23:07;;;;;;;;;;;;;;;10.96;85.26;97750.31;5081760;28;19920;-66
2023/05/12 04:25:55;;;;;;;;;;;;;;;10.86;85.58;97750.59;5096989;27;19958;-63
2023/05/12 04:28:43;;;;;;;;;;;;;;;10.84;86.13;97757.50;5074509;28;19942;-63
2023/05/12 04:31:31;;;;;;;;;;;;;;;10.82;86.50;97754.31;5071363;28;19960;-60
2023/05/12 04:34:23;;;;;;;;;;;;;;;10.84;86.77;97752.06;5091891;28;19953;-60
2023/05/12 04:37:11;;;;;;;;;;;;;;;10.86;86.67;97752.53;5078043;28;19942;-69
2023/05/12 04:39:59;;;;;;;;;;;;;;;10.87;86.48;97751.44;5082375;28;20478;-61
2023/05/12 04:42:48;;;;;;;;;;;;;;;10.86;86.13;97760.69;5074853;28;19980;-61
2023/05/12 04:45:37;;;;;;;;;;;;;;;10.89;86.14;97765.50;5077799;28;19942;-60
2023/05/12 04:48:25;;;;;;;;;;;;;;;11.08;85.63;97759.75;5074651;28;20396;-63
2023/05/12 04:51:17;;;;;;;;;;;;;;;10.98;85.50;97758.97;5071233;28;20040;-62
2023/05/12 04:54:06;;;;;;;;;;;;;;;10.94;85.59;97762.63;5071454;28;19942;-59
2023/05/12 04:56:54;;;;;;;;;;;;;;;10.93;86.03;97761.84;5098079;28;19946;-62
2023/05/12 04:59:43;;;;;;;;;;;;;;;10.92;86.49;97760.25;5104901;27;19942;-62
2023/05/12 05:02:33;;;;;;;;;;;;;;;11.08;85.66;97763.31;5071862;28;19941;-61
2023/05/12 05:05:23;;;;;;;;;;;;;;;11.05;85.95;97768.56;5088824;28;19945;-62
2023/05/12 05:08:15;;;;;;;;;;;;;;;11.07;86.19;97761.69;5073618;28;19971;-59
2023/05/12 05:11:03;;;;;;;;;;;;;;;11.13;85.53;97776.75;5099984;27;19938;-60
2023/05/12 05:13:52;;;;;;;;;;;;;;;11.19;85.25;97774.69;5075473;28;19942;-62
2023/05/12 05:16:41;;;;;;;;;;;;;;;11.22;85.27;97768.59;5081813;28;19937;-59
2023/05/12 05:19:29;;;;;;;;;;;;;;;11.26;85.24;97772.28;5089658;28;20335;-63
2023/05/12 05:22:22;;;;;;;;;;;;;;;11.26;85.16;97764.13;5093985;28;19954;-64
2023/05/12 05:25:13;;;;;;;;;;;;;;;11.37;85.12;97776.28;5082714;28;19931;-62
2023/05/12 05:28:01;;;;;;;;;;;;;;;11.34;85.05;97773.38;5077251;28;19957;-58
2023/05/12 05:30:52;;;;;;;;;;;;;;;11.43;85.06;97775.00;5057210;28;19974;-59
2023/05/12 05:33:40;;;;;;;;;;;;;;;11.43;84.09;97775.00;5080634;28;19941;-60
2023/05/12 05:36:29;;;;;;;;;;;;;;;11.43;83.92;97776.91;5089545;27;19984;-59
2023/05/12 05:39:18;;;;;;;;;;;;;;;11.44;84.13;97776.59;5083556;28;19992;-60
2023/05/12 05:42:08;;;;;;;;;;;;;;;11.47;84.30;97780.59;5067486;28;19929;-64
2023/05/12 05:44:56;;;;;;;;;;;;;;;11.48;84.61;97780.28;5061529;28;20374;-62
2023/05/12 05:47:45;;;;;;;;;;;;;;;11.54;84.03;97784.44;5076322;28;20020;-60
2023/05/12 05:50:33;;;;;;;;;;;;;;;11.57;84.19;97784.94;5082895;28;20675;-62
2023/05/12 05:53:21;;;;;;;;;;;;;;;11.62;84.14;97788.28;5097524;28;20374;-62
2023/05/12 05:56:10;;;;;;;;;;;;;;;11.85;83.07;97786.22;5106238;27;19937;-60
2023/05/12 05:59:01;;;;;;;;;;;;;;;11.78;82.85;97789.41;5083703;28;20015;-61
2023/05/12 06:01:50;;;;;;;;;;;;;;;11.97;82.64;97791.00;5073883;28;20382;-61
2023/05/12 06:04:38;;;;;;;;;;;;;;;11.89;81.56;97792.63;5086823;28;19920;-61
2023/05/12 06:07:27;;;;;;;;;;;;;;;11.88;81.79;97799.19;5083771;28;20305;-60
2023/05/12 06:10:15;;;;;;;;;;;;;;;11.93;81.50;97793.56;5112126;27;20326;-61
2023/05/12 06:13:03;;;;;;;;;;;;;;;11.91;81.35;97801.25;5093561;28;19940;-61
2023/05/12 06:15:54;;;;;;;;;;;;;;;11.91;82.07;97801.25;5077436;28;19965;-60
2023/05/12 06:18:42;;;;;;;;;;;;;;;11.92;81.94;97800.13;5102053;27;19965;-61
2023/05/12 06:21:31;;;;;;;;;;;;;;;11.90;82.50;97805.09;5051871;28;19921;-63
2023/05/12 06:24:19;;;;;;;;;;;;;;;11.95;81.76;97807.66;5048798;28;21984;-58
2023/05/12 06:27:07;;;;;;;;;;;;;;;12.08;81.53;97814.03;5032968;28;19928;-64
2023/05/12 06:29:57;;;;;;;;;;;;;;;11.98;81.91;97807.00;5068162;28;20618;-62
2023/05/12 06:32:47;;;;;;;;;;;;;;;11.94;82.40;97816.94;5054761;28;20003;-59
2023/05/12 06:35:35;;;;;;;;;;;;;;;11.92;82.90;97802.84;5065769;28;19959;-60
2023/05/12 06:38:25;;;;;;;;;;;;;;;11.99;83.19;97814.06;5073664;28;19920;-62
2023/05/12 06:41:13;;;;;;;;;;;;;;;12.03;83.50;97823.16;5050393;28;19924;-60
2023/05/12 06:44:02;;;;;;;;;;;;;;;12.23;82.27;97818.16;5047078;28;19932;-61
2023/05/12 06:46:51;;;;;;;;;;;;;;;12.19;82.53;97820.72;5061527;28;20068;-60
2023/05/12 06:49:41;;;;;;;;;;;;;;;12.21;82.28;97823.94;5063935;28;20392;-60
2023/05/12 06:52:29;;;;;;;;;;;;;;;12.29;82.54;97823.13;5054629;28;19931;-62
2023/05/12 06:55:19;;;;;;;;;;;;;;;12.32;82.82;97821.69;5042335;28;19924;-62
2023/05/12 06:58:07;;;;;;;;;;;;;;;12.47;81.25;97818.44;5044072;28;20399;-61
2023/05/12 07:00:56;;;;;;;;;;;;;;;12.55;80.98;97824.97;5066904;28;20532;-59
2023/05/12 07:03:44;;;;;;;;;;;;;;;12.61;80.59;97828.31;5058046;28;19932;-59
2023/05/12 07:06:34;;;;;;;;;;;;;;;12.65;79.63;97829.28;5047126;28;19921;-63
2023/05/12 07:09:22;;;;;;;;;;;;;;;12.58;80.18;97827.84;5057120;28;19967;-61
2023/05/12 07:12:10;;;;;;;;;;;;;;;12.54;80.59;97834.28;5058913;28;20384;-61
2023/05/12 07:14:59;;;;;;;;;;;;;;;12.52;80.86;97831.88;5054175;28;19928;-61
2023/05/12 07:17:47;;;;;;;;;;;;;;;12.56;81.55;97832.81;5051458;28;20664;-67
2023/05/12 07:20:36;;;;;;;;;;;;;;;12.69;81.65;97830.22;5059696;28;20381;-63
2023/05/12 07:23:25;;;;;;;;;;;;;;;12.79;80.51;97835.31;5071394;28;19936;-59
2023/05/12 07:26:14;;;;;;;;;;;;;;;12.84;78.28;97835.13;5078988;28;20285;-62
2023/05/12 07:29:04;;;;;;;;;;;;;;;12.86;78.46;97835.59;5076867;28;20410;-64
2023/05/12 07:31:53;;;;;;;;;;;;;;;12.76;78.66;97834.03;5067435;28;19920;-60
2023/05/12 07:34:42;;;;;;;;;;;;;;;12.79;78.59;97833.38;5078348;28;20703;-59
2023/05/12 07:37:30;;;;;;;;;;;;;;;12.82;78.64;97834.63;5063962;28;20031;-62
2023/05/12 07:40:20;;;;;;;;;;;;;;;12.83;78.99;97831.56;5073024;28;20016;-59
2023/05/12 07:43:09;;;;;;;;;;;;;;;13.04;78.79;97841.75;5069317;28;20034;-60
2023/05/12 07:46:00;;;;;;;;;;;;;;;13.16;78.40;97835.63;5064552;28;19969;-62
2023/05/12 07:48:52;;;;;;;;;;;;;;;13.31;77.69;97832.31;5081160;28;19931;-61
2023/05/12 07:51:40;;;;;;;;;;;;;;;13.41;76.47;97839.31;5080785;28;19949;-61
2023/05/12 07:54:28;;;;;;;;;;;;;;;13.41;74.66;97842.06;5067131;28;19924;-62
2023/05/12 07:57:18;;;;;;;;;;;;;;;13.43;76.12;97843.34;5084685;28;20404;-60
2023/05/12 08:00:08;;;;;;;;;;;;;;;13.43;74.62;97837.09;5084077;28;20331;-66
2023/05/12 08:02:59;;;;;;;;;;;;;;;13.42;75.46;97849.09;5079078;28;20053;-62
2023/05/12 08:05:48;;;;;;;;;;;;;;;13.38;74.48;97848.19;5087016;28;19924;-61
2023/05/12 08:08:38;;;;;;;;;;;;;;;13.38;74.39;97857.16;5082515;28;19943;-61
2023/05/12 08:11:27;;;;;;;;;;;;;;;13.42;74.54;97852.63;5102939;28;20285;-61
2023/05/12 08:14:16;;;;;;;;;;;;;;;13.40;74.77;97854.91;5099516;28;20388;-60
2023/05/12 08:17:05;;;;;;;;;;;;;;;13.45;74.71;97851.97;5106723;27;19936;-60
2023/05/12 08:19:53;;;;;;;;;;;;;;;13.45;74.75;97854.72;5105296;28;19930;-61
2023/05/12 08:22:42;;;;;;;;;;;;;;;13.49;75.32;97857.59;5069954;28;19968;-61
2023/05/12 08:25:33;;;;;;;;;;;;;;;13.60;75.13;97862.31;5086543;28;19927;-61
2023/05/12 08:28:21;;;;;;;;;;;;;;;13.62;74.96;97856.50;5074377;28;19930;-61
2023/05/12 08:31:11;;;;;;;;;;;;;;;13.57;75.34;97860.22;5078692;28;20011;-60
2023/05/12 08:33:59;;;;;;;;;;;;;;;13.59;75.98;97862.66;5064084;28;19935;-63
2023/05/12 08:36:57;;;;;;;;;;;;;;;13.56;75.55;97864.09;5071633;28;23701;-61
2023/05/12 08:39:45;;;;;;;;;;;;;;;13.67;75.92;97866.44;5086329;28;19930;-62
2023/05/12 08:42:35;;;;;;;;;;;;;;;13.65;75.09;97866.78;5083650;28;19942;-61
2023/05/12 08:45:23;;;;;;;;;;;;;;;13.60;75.84;97869.69;5080618;28;20387;-63
2023/05/12 08:48:14;;;;;;;;;;;;;;;13.48;76.13;97862.25;5075939;28;19920;-63
2023/05/12 08:51:02;;;;;;;;;;;;;;;13.35;77.12;97868.72;5067077;28;19920;-61
2023/05/12 08:53:51;;;;;;;;;;;;;;;13.51;76.45;97867.03;5078329;28;19924;-60
2023/05/12 08:56:40;;;;;;;;;;;;;;;13.67;76.45;97867.25;5083838;28;20073;-60
2023/05/12 08:59:31;;;;;;;;;;;;;;;13.79;75.57;97877.41;5078663;28;20058;-60
2023/05/12 09:02:19;;;;;;;;;;;;;;;13.99;74.43;97876.63;5059329;28;19947;-63
2023/05/12 09:05:10;;;;;;;;;;;;;;;14.10;73.78;97872.34;5074665;28;19921;-60
2023/05/12 09:07:58;;;;;;;;;;;;;;;14.22;74.73;97876.25;5077434;28;19924;-60
2023/05/12 09:10:46;;;;;;;;;;;;;;;14.30;73.69;97883.59;5069673;28;19931;-64
2023/05/12 09:13:36;;;;;;;;;;;;;;;14.42;73.55;97878.94;5065927;28;20375;-61
2023/05/12 09:16:25;;;;;;;;;;;;;;;14.36;73.38;97882.25;5077704;28;19966;-63
2023/05/12 09:19:13;;;;;;;;;;;;;;;14.32;73.07;97879.38;5077412;28;19932;-59
2023/05/12 09:22:03;;;;;;;;;;;;;;;14.26;73.16;97893.59;5081243;28;19947;-63
2023/05/12 09:24:51;;;;;;;;;;;;;;;14.13;72.42;97887.28;5078060;28;19920;-62
2023/05/12 09:27:39;;;;;;;;;;;;;;;14.09;73.27;97889.09;5075402;28;20000;-67
2023/05/12 09:30:29;;;;;;;;;;;;;;;14.13;72.37;97890.00;5078956;28;19931;-60
2023/05/12 09:33:17;;;;;;;;;;;;;;;14.29;71.78;97885.53;5081823;28;20168;-63
2023/05/12 09:36:05;;;;;;;;;;;;;;;14.57;71.80;97888.47;5080718;28;19921;-60
2023/05/12 09:39:03;;;;;;;;;;;;;;;14.63;71.71;97889.06;5084331;28;19964;-67
2023/05/12 09:41:52;;;;;;;;;;;;;;;14.62;71.52;97882.81;5080962;28;19927;-63
2023/05/12 09:44:41;;;;;;;;;;;;;;;14.74;72.06;97881.22;5084796;28;20285;-63
2023/05/12 09:47:33;;;;;;;;;;;;;;;14.99;70.62;97885.59;5061098;28;19959;-60
2023/05/12 09:50:22;;;;;;;;;;;;;;;15.14;70.34;97881.41;5081621;28;19920;-61
2023/05/12 09:53:10;;;;;;;;;;;;;;;15.38;68.72;97875.09;5081532;28;20329;-65
2023/05/12 09:56:00;;;;;;;;;;;;;;;15.32;69.57;97877.28;5081792;28;20355;-62
2023/05/12 09:58:49;;;;;;;;;;;;;;;15.58;68.55;97873.38;5084738;28;19932;-63
2023/05/12 10:01:38;;;;;;;;;;;;;;;15.76;68.27;97879.41;5045773;28;19921;-61
2023/05/12 10:04:26;;;;;;;;;;;;;;;15.60;67.34;97871.09;5044274;28;19956;-62
2023/05/12 10:07:15;;;;;;;;;;;;;;;15.71;67.58;97867.59;5063312;28;19948;-63
2023/05/12 10:10:04;;;;;;;;;;;;;;;15.66;68.04;97876.03;5061492;28;19921;-63
2023/05/12 10:12:54;;;;;;;;;;;;;;;15.39;66.30;97882.19;5062809;28;19925;-60
2023/05/12 10:15:43;;;;;;;;;;;;;;;15.25;66.28;97870.78;5056964;28;19920;-61
2023/05/12 10:18:31;;;;;;;;;;;;;;;15.33;68.26;97873.41;5081154;28;20054;-63
2023/05/12 10:21:19;;;;;;;;;;;;;;;15.25;65.66;97870.78;5077750;28;19924;-63
2023/05/12 10:24:08;;;;;;;;;;;;;;;14.99;65.13;97874.66;5078632;28;20073;-63
2023/05/12 10:26:58;;;;;;;;;;;;;;;14.94;65.86;97872.16;5094872;27;20590;-62
2023/05/12 10:29:47;;;;;;;;;;;;;;;14.81;65.55;97876.81;5086110;28;19930;-62
2023/05/12 10:32:37;;;;;;;;;;;;;;;14.75;66.84;97878.16;5088269;28;19923;-63
2023/05/12 10:35:31;;;;;;;;;;;;;;;14.74;66.54;97883.97;5084916;28;20304;-60
2023/05/12 10:38:20;;;;;;;;;;;;;;;14.74;67.25;97882.03;5081854;28;20011;-64
2023/05/12 10:41:08;;;;;;;;;;;;;;;14.81;66.62;97878.75;5083913;28;19923;-64
2023/05/12 10:43:56;;;;;;;;;;;;;;;14.87;66.75;97878.19;5085220;28;20012;-63
2023/05/12 10:46:46;;;;;;;;;;;;;;;14.85;68.00;97885.91;5076281;28;19924;-59
2023/05/12 10:49:36;;;;;;;;;;;;;;;14.91;67.20;97892.78;5081477;28;19924;-61
2023/05/12 10:52:25;;;;;;;;;;;;;;;15.02;68.35;97881.38;5083639;28;19931;-60
2023/05/12 10:55:14;;;;;;;;;;;;;;;15.11;67.84;97890.28;5075772;28;19928;-61
2023/05/12 10:58:06;;;;;;;;;;;;;;;15.14;67.33;97895.88;5082206;28;19928;-59
2023/05/12 11:00:54;;;;;;;;;;;;;;;15.24;66.65;97886.41;5088357;28;19943;-60
2023/05/12 11:03:45;;;;;;;;;;;;;;;15.36;67.37;97891.88;5081992;28;19924;-60
2023/05/12 11:06:34;;;;;;;;;;;;;;;15.32;66.09;97893.69;5078339;28;20031;-59
2023/05/12 11:09:23;;;;;;;;;;;;;;;15.38;67.70;97888.78;5116865;27;19920;-60
2023/05/12 11:12:12;;;;;;;;;;;;;;;15.27;66.46;97884.94;5093010;27;19924;-61
2023/05/12 11:15:01;;;;;;;;;;;;;;;15.29;67.79;97888.94;5079027;28;20010;-61
2023/05/12 11:17:49;;;;;;;;;;;;;;;15.04;67.48;97888.13;5075342;28;20487;-60
2023/05/12 11:20:39;;;;;;;;;;;;;;;15.02;68.55;97893.13;5076980;28;19924;-61
2023/05/12 11:23:27;;;;;;;;;;;;;;;15.18;68.93;97899.53;5065056;28;19924;-62
2023/05/12 11:26:17;;;;;;;;;;;;;;;15.33;69.26;97899.97;5069296;28;19967;-62
2023/05/12 11:29:05;;;;;;;;;;;;;;;15.32;68.98;97904.66;5068421;28;19920;-60
2023/05/12 11:31:54;;;;;;;;;;;;;;;15.30;68.92;97901.47;5078280;28;19920;-59
2023/05/12 11:34:42;;;;;;;;;;;;;;;15.25;69.31;97906.38;5066810;28;19920;-59
2023/05/12 11:37:35;;;;;;;;;;;;;;;15.22;70.09;97907.03;5076442;28;19932;-63
2023/05/12 11:40:25;;;;;;;;;;;;;;;15.02;68.50;97906.81;5093524;28;19926;-60
2023/05/12 11:43:14;;;;;;;;;;;;;;;14.89;70.40;97903.25;5083989;28;20009;-59
2023/05/12 11:46:02;;;;;;;;;;;;;;;14.77;71.21;97910.66;5076505;28;20011;-59
2023/05/12 11:48:54;;;;;;;;;;;;;;;14.73;72.55;97902.31;5068275;28;19920;-60
2023/05/12 11:51:44;;;;;;;;;;;;;;;14.66;72.76;97902.88;5062237;28;19943;-59
2023/05/12 11:54:33;;;;;;;;;;;;;;;14.65;72.51;97903.22;5070715;28;19928;-59
2023/05/12 11:57:26;;;;;;;;;;;;;;;14.74;73.01;97909.38;5065351;28;20347;-61
2023/05/12 12:00:14;;;;;;;;;;;;;;;14.78;72.94;97904.03;5068587;28;19928;-60
2023/05/12 12:03:07;;;;;;;;;;;;;;;14.87;70.61;97916.47;5070411;28;19927;-58
2023/05/12 12:05:59;;;;;;;;;;;;;;;14.89;71.90;97913.41;5077364;28;19967;-63
2023/05/12 12:08:51;;;;;;;;;;;;;;;14.95;71.50;97917.50;5083367;28;19931;-60
2023/05/12 12:11:42;;;;;;;;;;;;;;;14.97;71.47;97914.41;5072882;28;20510;-64
2023/05/12 12:14:30;;;;;;;;;;;;;;;14.89;72.40;97927.88;5057889;28;20314;-65
2023/05/12 12:17:18;;;;;;;;;;;;;;;14.88;73.02;97922.75;5071851;28;20275;-62
2023/05/12 12:20:07;;;;;;;;;;;;;;;14.98;73.29;97932.47;5080728;28;20011;-67
2023/05/12 12:22:56;;;;;;;;;;;;;;;15.07;73.77;97933.94;5046277;28;19921;-62
2023/05/12 12:25:44;;;;;;;;;;;;;;;15.12;69.87;97932.91;5073150;28;19921;-61
2023/05/12 12:28:34;;;;;;;;;;;;;;;14.98;68.55;97933.25;5054670;28;19944;-62
2023/05/12 12:31:22;;;;;;;;;;;;;;;14.95;68.42;97939.38;5053982;28;20078;-63
2023/05/12 12:34:10;;;;;;;;;;;;;;;14.99;69.49;97939.53;5050313;28;19931;-59
2023/05/12 12:36:58;;;;;;;;;;;;;;;14.97;69.98;97947.25;5063195;28;19933;-61
2023/05/12 12:39:47;;;;;;;;;;;;;;;14.96;70.64;97945.66;5066777;28;19943;-60
2023/05/12 12:42:36;;;;;;;;;;;;;;;14.86;69.91;97949.63;5076359;28;19933;-59
2023/05/12 12:45:26;;;;;;;;;;;;;;;14.79;70.55;97941.97;5046029;28;20049;-60
2023/05/12 12:48:14;;;;;;;;;;;;;;;14.68;70.06;97941.59;5056495;28;20442;-63
2023/05/12 12:51:02;;;;;;;;;;;;;;;14.77;70.61;97947.00;5053262;28;19929;-61
2023/05/12 12:53:51;;;;;;;;;;;;;;;14.88;70.06;97944.63;5049547;28;19924;-59
2023/05/12 12:56:39;;;;;;;;;;;;;;;14.93;69.69;97934.25;5061281;28;19924;-60
2023/05/12 12:59:28;;;;;;;;;;;;;;;15.07;70.87;97947.63;5043361;28;19921;-60
2023/05/12 13:02:17;;;;;;;;;;;;;;;15.15;71.24;97946.72;5054504;28;19928;-60
2023/05/12 13:05:07;;;;;;;;;;;;;;;15.34;69.81;97945.34;5054209;28;20373;-59
2023/05/12 13:07:55;;;;;;;;;;;;;;;15.30;68.88;97949.94;5069615;28;19927;-60
2023/05/12 13:10:43;;;;;;;;;;;;;;;15.25;69.99;97948.22;5063593;28;19932;-61
2023/05/12 13:13:32;;;;;;;;;;;;;;;15.12;71.29;97947.41;5061740;28;19921;-60
2023/05/12 13:16:20;;;;;;;;;;;;;;;15.01;69.83;97943.50;5059834;28;19925;-66
2023/05/12 13:19:10;;;;;;;;;;;;;;;14.76;71.04;97948.13;5078242;28;19925;-61
2023/05/12 13:21:59;;;;;;;;;;;;;;;14.65;69.98;97958.69;5091902;28;19924;-63
2023/05/12 13:24:47;;;;;;;;;;;;;;;14.46;70.66;97950.16;5075639;28;19920;-59
2023/05/12 13:27:35;;;;;;;;;;;;;;;14.38;71.53;97954.56;5075992;28;19928;-62
2023/05/12 13:30:24;;;;;;;;;;;;;;;14.34;72.85;97958.31;5069199;28;20136;-60
2023/05/12 13:33:13;;;;;;;;;;;;;;;14.40;72.71;97956.97;5075185;28;19924;-60
2023/05/12 13:36:02;;;;;;;;;;;;;;;14.48;71.88;97958.03;5065488;28;19925;-60
2023/05/12 13:38:51;;;;;;;;;;;;;;;14.56;71.18;97957.97;5080837;28;19928;-59
2023/05/12 13:41:39;;;;;;;;;;;;;;;14.62;71.23;97953.91;5076273;28;20053;-60
2023/05/12 13:44:27;;;;;;;;;;;;;;;14.68;72.03;97962.69;5075831;28;20686;-60
2023/05/12 13:47:17;;;;;;;;;;;;;;;14.80;71.48;97948.25;5076108;28;19920;-60
2023/05/12 13:50:06;;;;;;;;;;;;;;;14.86;71.25;97952.34;5074217;28;20074;-60
2023/05/12 13:52:56;;;;;;;;;;;;;;;14.86;71.11;97952.34;5065853;28;19943;-60
2023/05/12 13:55:44;;;;;;;;;;;;;;;14.84;71.48;97954.63;5077063;28;20033;-60
2023/05/12 13:58:33;;;;;;;;;;;;;;;14.83;72.48;97953.03;5077962;28;19924;-61
2023/05/12 14:01:21;;;;;;;;;;;;;;;14.81;72.70;97950.66;5067624;28;19924;-66
2023/05/12 14:04:09;;;;;;;;;;;;;;;14.90;72.78;97948.59;5059556;28;19974;-62
2023/05/12 14:07:01;;;;;;;;;;;;;;;14.96;73.08;97951.94;5076215;28;19920;-60
2023/05/12 14:09:51;;;;;;;;;;;;;;;15.08;71.08;97951.97;5075770;28;20557;-62
2023/05/12 14:12:41;;;;;;;;;;;;;;;15.08;71.96;97951.97;5079207;28;19924;-63
2023/05/12 14:15:29;;;;;;;;;;;;;;;15.18;71.82;97954.28;5071660;28;19924;-63
2023/05/12 14:18:34;;;;;;;;;;;;;;;15.25;70.41;97961.13;5065125;28;19920;-61
2023/05/12 14:21:22;;;;;;;;;;;;;;;15.25;70.43;97952.91;5081173;28;19919;-62
2023/05/12 14:24:14;;;;;;;;;;;;;;;15.16;70.65;97962.00;5091090;28;20481;-62
2023/05/12 14:27:03;;;;;;;;;;;;;;;15.13;71.03;97962.69;5087303;28;20027;-60
2023/05/12 14:29:52;;;;;;;;;;;;;;;15.11;71.48;97953.22;5080347;28;20534;-61
2023/05/12 14:32:40;;;;;;;;;;;;;;;15.18;70.92;97962.47;5084491;28;19924;-60
2023/05/12 14:35:28;;;;;;;;;;;;;;;15.15;69.99;97957.66;5081059;28;20830;-63
2023/05/12 14:38:17;;;;;;;;;;;;;;;15.31;70.09;97959.75;5079074;28;19927;-62
2023/05/12 14:41:07;;;;;;;;;;;;;;;15.34;69.74;97953.56;5080053;28;19920;-60